sensor_id;sensor_type;location;lat;lon;timestamp;P1;durP1;ratioP1;P2;durP2;ratioP2
20480;SDS011;10399;50.754;3.366;2023-01-26T00:01:18;144.35;;;38.33;;
20480;SDS011;10399;50.754;3.366;2023-01-26T00:03:48;129.52;;;34.75;;
20480;SDS011;10399;50.754;3.366;2023-01-26T00:06:17;128.05;;;39.10;;
20480;SDS011;10399;50.754;3.366;2023-01-26T00:08:46;140.27;;;38.30;;
20480;SDS011;10399;50.754;3.366;2023-01-26T00:11:15;141.97;;;37.77;;
20480;SDS011;10399;50.754;3.366;2023-01-26T00:13:52;132.85;;;37.92;;
20480;SDS011;10399;50.754;3.366;2023-01-26T00:16:24;142.65;;;39.78;;
20480;SDS011;10399;50.754;3.366;2023-01-26T00:18:52;137.90;;;37.45;;
20480;SDS011;10399;50.754;3.366;2023-01-26T00:21:20;138.90;;;37.63;;
20480;SDS011;10399;50.754;3.366;2023-01-26T00:23:49;142.85;;;36.75;;
20480;SDS011;10399;50.754;3.366;2023-01-26T00:26:19;143.50;;;39.97;;
20480;SDS011;10399;50.754;3.366;2023-01-26T00:28:49;140.05;;;38.90;;
20480;SDS011;10399;50.754;3.366;2023-01-26T00:31:18;135.65;;;36.65;;
20480;SDS011;10399;50.754;3.366;2023-01-26T00:33:47;141.30;;;37.92;;
20480;SDS011;10399;50.754;3.366;2023-01-26T00:36:15;136.77;;;38.33;;
20480;SDS011;10399;50.754;3.366;2023-01-26T00:38:43;141.32;;;38.95;;
20480;SDS011;10399;50.754;3.366;2023-01-26T00:41:10;141.95;;;37.60;;
20480;SDS011;10399;50.754;3.366;2023-01-26T00:43:57;134.50;;;35.85;;
20480;SDS011;10399;50.754;3.366;2023-01-26T00:46:25;137.63;;;38.53;;
20480;SDS011;10399;50.754;3.366;2023-01-26T00:48:55;134.55;;;37.63;;
20480;SDS011;10399;50.754;3.366;2023-01-26T00:51:23;142.68;;;37.60;;
20480;SDS011;10399;50.754;3.366;2023-01-26T00:53:50;137.68;;;36.35;;
20480;SDS011;10399;50.754;3.366;2023-01-26T00:56:17;131.07;;;37.25;;
20480;SDS011;10399;50.754;3.366;2023-01-26T00:58:44;135.07;;;36.25;;
20480;SDS011;10399;50.754;3.366;2023-01-26T01:01:11;134.90;;;38.40;;
20480;SDS011;10399;50.754;3.366;2023-01-26T01:03:38;138.90;;;35.22;;
20480;SDS011;10399;50.754;3.366;2023-01-26T01:06:06;139.82;;;36.58;;
20480;SDS011;10399;50.754;3.366;2023-01-26T01:08:33;152.60;;;38.63;;
20480;SDS011;10399;50.754;3.366;2023-01-26T01:11:01;142.80;;;35.30;;
20480;SDS011;10399;50.754;3.366;2023-01-26T01:13:30;135.45;;;36.33;;
20480;SDS011;10399;50.754;3.366;2023-01-26T01:15:57;124.30;;;34.80;;
20480;SDS011;10399;50.754;3.366;2023-01-26T01:18:25;135.63;;;36.25;;
20480;SDS011;10399;50.754;3.366;2023-01-26T01:20:52;129.23;;;35.30;;
20480;SDS011;10399;50.754;3.366;2023-01-26T01:23:19;131.60;;;34.65;;
20480;SDS011;10399;50.754;3.366;2023-01-26T01:25:48;134.65;;;35.60;;
20480;SDS011;10399;50.754;3.366;2023-01-26T01:28:23;125.45;;;35.63;;
20480;SDS011;10399;50.754;3.366;2023-01-26T01:30:50;125.10;;;33.95;;
20480;SDS011;10399;50.754;3.366;2023-01-26T01:33:17;131.23;;;36.30;;
20480;SDS011;10399;50.754;3.366;2023-01-26T01:35:54;124.15;;;34.17;;
20480;SDS011;10399;50.754;3.366;2023-01-26T01:38:25;122.43;;;33.55;;
20480;SDS011;10399;50.754;3.366;2023-01-26T01:40:53;125.72;;;35.47;;
20480;SDS011;10399;50.754;3.366;2023-01-26T01:43:21;115.30;;;33.28;;
20480;SDS011;10399;50.754;3.366;2023-01-26T01:45:50;121.88;;;33.78;;
20480;SDS011;10399;50.754;3.366;2023-01-26T01:48:26;120.72;;;33.97;;
20480;SDS011;10399;50.754;3.366;2023-01-26T01:51:16;125.53;;;33.95;;
20480;SDS011;10399;50.754;3.366;2023-01-26T01:53:47;111.82;;;32.70;;
20480;SDS011;10399;50.754;3.366;2023-01-26T01:56:20;116.63;;;31.92;;
20480;SDS011;10399;50.754;3.366;2023-01-26T01:58:50;109.65;;;32.42;;
20480;SDS011;10399;50.754;3.366;2023-01-26T02:01:20;116.90;;;32.97;;
20480;SDS011;10399;50.754;3.366;2023-01-26T02:03:48;116.15;;;31.67;;
20480;SDS011;10399;50.754;3.366;2023-01-26T02:06:46;112.55;;;30.83;;
20480;SDS011;10399;50.754;3.366;2023-01-26T02:09:14;115.63;;;30.93;;
20480;SDS011;10399;50.754;3.366;2023-01-26T02:12:02;103.53;;;28.65;;
20480;SDS011;10399;50.754;3.366;2023-01-26T02:14:32;104.03;;;30.95;;
20480;SDS011;10399;50.754;3.366;2023-01-26T02:17:02;108.95;;;30.95;;
20480;SDS011;10399;50.754;3.366;2023-01-26T02:25:19;105.90;;;28.55;;
20480;SDS011;10399;50.754;3.366;2023-01-26T02:27:58;101.05;;;28.73;;
20480;SDS011;10399;50.754;3.366;2023-01-26T02:30:26;102.55;;;28.75;;
20480;SDS011;10399;50.754;3.366;2023-01-26T02:32:54;101.88;;;27.48;;
20480;SDS011;10399;50.754;3.366;2023-01-26T02:35:21;105.10;;;28.75;;
20480;SDS011;10399;50.754;3.366;2023-01-26T02:37:48;99.38;;;28.08;;
20480;SDS011;10399;50.754;3.366;2023-01-26T02:40:20;107.03;;;28.52;;
20480;SDS011;10399;50.754;3.366;2023-01-26T02:42:54;108.88;;;29.60;;
20480;SDS011;10399;50.754;3.366;2023-01-26T02:45:21;98.50;;;27.30;;
20480;SDS011;10399;50.754;3.366;2023-01-26T02:47:50;111.20;;;28.67;;
20480;SDS011;10399;50.754;3.366;2023-01-26T02:50:18;93.07;;;27.35;;
20480;SDS011;10399;50.754;3.366;2023-01-26T02:52:45;104.93;;;28.35;;
20480;SDS011;10399;50.754;3.366;2023-01-26T02:55:11;113.90;;;29.40;;
20480;SDS011;10399;50.754;3.366;2023-01-26T02:57:49;107.95;;;28.60;;
20480;SDS011;10399;50.754;3.366;2023-01-26T03:00:21;106.28;;;28.33;;
20480;SDS011;10399;50.754;3.366;2023-01-26T03:02:57;104.22;;;28.48;;
20480;SDS011;10399;50.754;3.366;2023-01-26T03:05:26;105.45;;;30.30;;
20480;SDS011;10399;50.754;3.366;2023-01-26T03:07:54;103.75;;;29.73;;
20480;SDS011;10399;50.754;3.366;2023-01-26T03:10:21;103.93;;;30.55;;
20480;SDS011;10399;50.754;3.366;2023-01-26T03:12:50;114.78;;;29.17;;
20480;SDS011;10399;50.754;3.366;2023-01-26T03:15:17;111.20;;;29.55;;
20480;SDS011;10399;50.754;3.366;2023-01-26T03:18:04;112.05;;;29.77;;
20480;SDS011;10399;50.754;3.366;2023-01-26T03:20:52;108.05;;;29.75;;
20480;SDS011;10399;50.754;3.366;2023-01-26T03:23:37;103.97;;;29.30;;
20480;SDS011;10399;50.754;3.366;2023-01-26T03:26:23;113.25;;;31.42;;
20480;SDS011;10399;50.754;3.366;2023-01-26T03:29:08;116.75;;;29.58;;
20480;SDS011;10399;50.754;3.366;2023-01-26T03:31:36;112.00;;;31.60;;
20480;SDS011;10399;50.754;3.366;2023-01-26T03:34:03;112.60;;;29.58;;
20480;SDS011;10399;50.754;3.366;2023-01-26T03:36:30;115.38;;;29.90;;
20480;SDS011;10399;50.754;3.366;2023-01-26T03:38:57;108.25;;;29.00;;
20480;SDS011;10399;50.754;3.366;2023-01-26T03:41:24;110.25;;;30.80;;
20480;SDS011;10399;50.754;3.366;2023-01-26T03:44:09;95.93;;;27.45;;
20480;SDS011;10399;50.754;3.366;2023-01-26T03:46:54;106.82;;;29.25;;
20480;SDS011;10399;50.754;3.366;2023-01-26T03:49:40;101.88;;;28.50;;
20480;SDS011;10399;50.754;3.366;2023-01-26T03:52:25;105.50;;;28.20;;
20480;SDS011;10399;50.754;3.366;2023-01-26T03:55:14;103.40;;;28.45;;
20480;SDS011;10399;50.754;3.366;2023-01-26T03:57:59;107.80;;;29.33;;
20480;SDS011;10399;50.754;3.366;2023-01-26T04:00:26;105.30;;;28.27;;
20480;SDS011;10399;50.754;3.366;2023-01-26T04:02:54;102.75;;;28.13;;
20480;SDS011;10399;50.754;3.366;2023-01-26T04:05:39;109.82;;;28.35;;
20480;SDS011;10399;50.754;3.366;2023-01-26T04:08:41;106.15;;;28.38;;
20480;SDS011;10399;50.754;3.366;2023-01-26T04:11:10;108.82;;;28.73;;
20480;SDS011;10399;50.754;3.366;2023-01-26T04:13:38;96.43;;;28.90;;
20480;SDS011;10399;50.754;3.366;2023-01-26T04:16:23;99.05;;;27.58;;
20480;SDS011;10399;50.754;3.366;2023-01-26T04:19:09;87.30;;;24.42;;
20480;SDS011;10399;50.754;3.366;2023-01-26T04:21:54;91.57;;;25.45;;
20480;SDS011;10399;50.754;3.366;2023-01-26T04:24:21;108.97;;;26.25;;
20480;SDS011;10399;50.754;3.366;2023-01-26T04:26:50;100.28;;;27.38;;
20480;SDS011;10399;50.754;3.366;2023-01-26T04:29:17;94.82;;;25.35;;
20480;SDS011;10399;50.754;3.366;2023-01-26T04:31:44;90.65;;;25.55;;
20480;SDS011;10399;50.754;3.366;2023-01-26T04:34:12;90.82;;;26.17;;
20480;SDS011;10399;50.754;3.366;2023-01-26T04:36:40;95.90;;;25.48;;
20480;SDS011;10399;50.754;3.366;2023-01-26T04:39:08;87.40;;;23.75;;
20480;SDS011;10399;50.754;3.366;2023-01-26T04:41:35;87.75;;;25.52;;
20480;SDS011;10399;50.754;3.366;2023-01-26T04:44:02;94.93;;;26.92;;
20480;SDS011;10399;50.754;3.366;2023-01-26T04:46:29;94.50;;;25.30;;
20480;SDS011;10399;50.754;3.366;2023-01-26T04:48:58;92.75;;;26.88;;
20480;SDS011;10399;50.754;3.366;2023-01-26T04:51:25;96.22;;;27.02;;
20480;SDS011;10399;50.754;3.366;2023-01-26T04:53:53;112.68;;;32.03;;
20480;SDS011;10399;50.754;3.366;2023-01-26T04:56:22;98.93;;;26.88;;
20480;SDS011;10399;50.754;3.366;2023-01-26T04:58:55;95.72;;;27.67;;
20480;SDS011;10399;50.754;3.366;2023-01-26T05:01:24;94.13;;;25.55;;
20480;SDS011;10399;50.754;3.366;2023-01-26T05:03:52;93.53;;;25.60;;
20480;SDS011;10399;50.754;3.366;2023-01-26T05:06:19;99.68;;;28.40;;
20480;SDS011;10399;50.754;3.366;2023-01-26T05:08:46;92.80;;;28.02;;
20480;SDS011;10399;50.754;3.366;2023-01-26T05:11:13;101.55;;;30.50;;
20480;SDS011;10399;50.754;3.366;2023-01-26T05:13:40;92.10;;;26.98;;
20480;SDS011;10399;50.754;3.366;2023-01-26T05:16:07;79.28;;;22.77;;
20480;SDS011;10399;50.754;3.366;2023-01-26T05:18:35;91.40;;;25.80;;
20480;SDS011;10399;50.754;3.366;2023-01-26T05:21:01;84.70;;;25.67;;
20480;SDS011;10399;50.754;3.366;2023-01-26T05:23:29;96.57;;;26.70;;
20480;SDS011;10399;50.754;3.366;2023-01-26T05:25:56;100.10;;;28.60;;
20480;SDS011;10399;50.754;3.366;2023-01-26T05:28:23;86.07;;;26.58;;
20480;SDS011;10399;50.754;3.366;2023-01-26T05:30:50;85.30;;;24.95;;
20480;SDS011;10399;50.754;3.366;2023-01-26T05:33:17;86.90;;;25.30;;
20480;SDS011;10399;50.754;3.366;2023-01-26T05:35:47;85.60;;;24.27;;
20480;SDS011;10399;50.754;3.366;2023-01-26T05:38:15;86.28;;;24.65;;
20480;SDS011;10399;50.754;3.366;2023-01-26T05:40:42;82.50;;;23.23;;
20480;SDS011;10399;50.754;3.366;2023-01-26T05:43:10;83.35;;;23.80;;
20480;SDS011;10399;50.754;3.366;2023-01-26T05:45:38;81.95;;;24.50;;
20480;SDS011;10399;50.754;3.366;2023-01-26T05:48:06;75.43;;;24.58;;
20480;SDS011;10399;50.754;3.366;2023-01-26T05:50:33;91.30;;;25.42;;
20480;SDS011;10399;50.754;3.366;2023-01-26T05:53:00;82.75;;;23.23;;
20480;SDS011;10399;50.754;3.366;2023-01-26T05:55:28;81.80;;;25.48;;
20480;SDS011;10399;50.754;3.366;2023-01-26T05:57:55;89.25;;;25.55;;
20480;SDS011;10399;50.754;3.366;2023-01-26T06:00:23;82.75;;;23.42;;
20480;SDS011;10399;50.754;3.366;2023-01-26T06:02:50;87.10;;;23.55;;
20480;SDS011;10399;50.754;3.366;2023-01-26T06:05:17;82.53;;;24.63;;
20480;SDS011;10399;50.754;3.366;2023-01-26T06:07:43;78.53;;;24.13;;
20480;SDS011;10399;50.754;3.366;2023-01-26T06:10:11;74.75;;;24.08;;
20480;SDS011;10399;50.754;3.366;2023-01-26T06:12:38;86.82;;;26.70;;
20480;SDS011;10399;50.754;3.366;2023-01-26T06:15:08;86.65;;;24.27;;
20480;SDS011;10399;50.754;3.366;2023-01-26T06:17:38;87.25;;;26.85;;
20480;SDS011;10399;50.754;3.366;2023-01-26T06:20:05;94.20;;;26.38;;
20480;SDS011;10399;50.754;3.366;2023-01-26T06:22:33;85.93;;;24.90;;
20480;SDS011;10399;50.754;3.366;2023-01-26T06:25:00;81.47;;;26.10;;
20480;SDS011;10399;50.754;3.366;2023-01-26T06:27:27;84.05;;;26.60;;
20480;SDS011;10399;50.754;3.366;2023-01-26T06:29:54;73.85;;;22.40;;
20480;SDS011;10399;50.754;3.366;2023-01-26T06:32:21;79.88;;;24.05;;
20480;SDS011;10399;50.754;3.366;2023-01-26T06:34:48;72.20;;;22.00;;
20480;SDS011;10399;50.754;3.366;2023-01-26T06:37:18;70.15;;;22.75;;
20480;SDS011;10399;50.754;3.366;2023-01-26T06:39:45;68.43;;;23.23;;
20480;SDS011;10399;50.754;3.366;2023-01-26T06:42:12;70.40;;;22.02;;
20480;SDS011;10399;50.754;3.366;2023-01-26T06:44:38;64.65;;;20.85;;
20480;SDS011;10399;50.754;3.366;2023-01-26T06:47:05;72.50;;;23.55;;
20480;SDS011;10399;50.754;3.366;2023-01-26T06:49:32;60.50;;;19.67;;
20480;SDS011;10399;50.754;3.366;2023-01-26T06:54:47;59.95;;;23.90;;
20480;SDS011;10399;50.754;3.366;2023-01-26T06:57:15;68.40;;;21.80;;
20480;SDS011;10399;50.754;3.366;2023-01-26T06:59:42;56.08;;;18.73;;
20480;SDS011;10399;50.754;3.366;2023-01-26T07:02:14;55.60;;;20.20;;
20480;SDS011;10399;50.754;3.366;2023-01-26T07:04:43;59.65;;;19.13;;
20480;SDS011;10399;50.754;3.366;2023-01-26T07:07:11;59.40;;;19.95;;
20480;SDS011;10399;50.754;3.366;2023-01-26T07:09:39;59.72;;;20.00;;
20480;SDS011;10399;50.754;3.366;2023-01-26T07:12:06;59.20;;;20.23;;
20480;SDS011;10399;50.754;3.366;2023-01-26T07:14:33;56.17;;;19.98;;
20480;SDS011;10399;50.754;3.366;2023-01-26T07:17:00;53.60;;;19.40;;
20480;SDS011;10399;50.754;3.366;2023-01-26T07:19:27;57.80;;;19.30;;
20480;SDS011;10399;50.754;3.366;2023-01-26T07:21:56;58.53;;;19.30;;
20480;SDS011;10399;50.754;3.366;2023-01-26T07:24:23;57.20;;;18.00;;
20480;SDS011;10399;50.754;3.366;2023-01-26T07:26:50;53.60;;;17.52;;
20480;SDS011;10399;50.754;3.366;2023-01-26T07:29:17;50.85;;;18.60;;
20480;SDS011;10399;50.754;3.366;2023-01-26T07:31:44;54.55;;;19.40;;
20480;SDS011;10399;50.754;3.366;2023-01-26T07:34:11;59.97;;;20.38;;
20480;SDS011;10399;50.754;3.366;2023-01-26T07:36:39;57.30;;;20.02;;
20480;SDS011;10399;50.754;3.366;2023-01-26T07:39:06;50.97;;;18.10;;
20480;SDS011;10399;50.754;3.366;2023-01-26T07:41:34;62.53;;;20.60;;
20480;SDS011;10399;50.754;3.366;2023-01-26T07:44:01;53.15;;;19.70;;
20480;SDS011;10399;50.754;3.366;2023-01-26T07:46:29;55.90;;;20.23;;
20480;SDS011;10399;50.754;3.366;2023-01-26T07:48:56;52.30;;;18.52;;
20480;SDS011;10399;50.754;3.366;2023-01-26T07:51:23;51.25;;;19.05;;
20480;SDS011;10399;50.754;3.366;2023-01-26T07:53:50;57.13;;;19.00;;
20480;SDS011;10399;50.754;3.366;2023-01-26T07:56:17;56.15;;;19.10;;
20480;SDS011;10399;50.754;3.366;2023-01-26T07:58:50;56.42;;;19.98;;
20480;SDS011;10399;50.754;3.366;2023-01-26T08:01:19;58.42;;;19.52;;
20480;SDS011;10399;50.754;3.366;2023-01-26T08:03:48;62.67;;;19.30;;
20480;SDS011;10399;50.754;3.366;2023-01-26T08:06:16;51.85;;;19.42;;
20480;SDS011;10399;50.754;3.366;2023-01-26T08:08:47;50.20;;;19.25;;
20480;SDS011;10399;50.754;3.366;2023-01-26T08:11:19;45.90;;;18.58;;
20480;SDS011;10399;50.754;3.366;2023-01-26T08:13:48;51.25;;;19.08;;
20480;SDS011;10399;50.754;3.366;2023-01-26T08:16:16;57.05;;;22.55;;
20480;SDS011;10399;50.754;3.366;2023-01-26T08:18:44;61.60;;;19.60;;
20480;SDS011;10399;50.754;3.366;2023-01-26T08:21:12;50.60;;;20.17;;
20480;SDS011;10399;50.754;3.366;2023-01-26T08:23:40;49.22;;;18.52;;
20480;SDS011;10399;50.754;3.366;2023-01-26T08:26:09;49.05;;;20.05;;
20480;SDS011;10399;50.754;3.366;2023-01-26T08:28:38;49.50;;;19.77;;
20480;SDS011;10399;50.754;3.366;2023-01-26T08:31:08;47.17;;;19.10;;
20480;SDS011;10399;50.754;3.366;2023-01-26T08:33:41;49.67;;;18.17;;
20480;SDS011;10399;50.754;3.366;2023-01-26T08:36:12;53.92;;;17.83;;
20480;SDS011;10399;50.754;3.366;2023-01-26T08:38:41;55.17;;;18.52;;
20480;SDS011;10399;50.754;3.366;2023-01-26T08:41:08;59.95;;;18.55;;
20480;SDS011;10399;50.754;3.366;2023-01-26T08:43:35;63.72;;;19.77;;
20480;SDS011;10399;50.754;3.366;2023-01-26T08:46:03;56.72;;;19.50;;
20480;SDS011;10399;50.754;3.366;2023-01-26T08:48:31;63.03;;;20.85;;
20480;SDS011;10399;50.754;3.366;2023-01-26T08:50:59;74.65;;;22.33;;
20480;SDS011;10399;50.754;3.366;2023-01-26T08:53:31;70.57;;;23.10;;
20480;SDS011;10399;50.754;3.366;2023-01-26T08:56:00;67.80;;;23.27;;
20480;SDS011;10399;50.754;3.366;2023-01-26T08:58:28;88.13;;;24.08;;
20480;SDS011;10399;50.754;3.366;2023-01-26T09:00:55;76.30;;;23.77;;
20480;SDS011;10399;50.754;3.366;2023-01-26T09:03:22;73.10;;;24.05;;
20480;SDS011;10399;50.754;3.366;2023-01-26T09:05:50;74.15;;;23.40;;
20480;SDS011;10399;50.754;3.366;2023-01-26T09:08:17;84.82;;;24.38;;
20480;SDS011;10399;50.754;3.366;2023-01-26T09:10:44;91.57;;;25.35;;
20480;SDS011;10399;50.754;3.366;2023-01-26T09:13:10;87.25;;;26.23;;
20480;SDS011;10399;50.754;3.366;2023-01-26T09:15:37;78.88;;;23.92;;
20480;SDS011;10399;50.754;3.366;2023-01-26T09:18:04;96.95;;;26.02;;
20480;SDS011;10399;50.754;3.366;2023-01-26T09:20:31;96.18;;;28.23;;
20480;SDS011;10399;50.754;3.366;2023-01-26T09:22:58;86.88;;;24.80;;
20480;SDS011;10399;50.754;3.366;2023-01-26T09:25:25;90.40;;;24.65;;
20480;SDS011;10399;50.754;3.366;2023-01-26T09:27:52;78.20;;;22.13;;
20480;SDS011;10399;50.754;3.366;2023-01-26T09:30:19;75.50;;;21.63;;
20480;SDS011;10399;50.754;3.366;2023-01-26T09:32:47;82.97;;;20.60;;
20480;SDS011;10399;50.754;3.366;2023-01-26T09:35:13;72.97;;;19.10;;
20480;SDS011;10399;50.754;3.366;2023-01-26T09:37:44;70.20;;;16.98;;
20480;SDS011;10399;50.754;3.366;2023-01-26T09:40:13;65.47;;;16.38;;
20480;SDS011;10399;50.754;3.366;2023-01-26T09:42:48;63.65;;;15.93;;
20480;SDS011;10399;50.754;3.366;2023-01-26T09:45:28;68.70;;;16.48;;
20480;SDS011;10399;50.754;3.366;2023-01-26T09:50:47;57.83;;;13.02;;
20480;SDS011;10399;50.754;3.366;2023-01-26T09:53:56;72.63;;;13.95;;
20480;SDS011;10399;50.754;3.366;2023-01-26T09:56:27;52.25;;;12.27;;
20480;SDS011;10399;50.754;3.366;2023-01-26T09:59:05;54.78;;;12.25;;
20480;SDS011;10399;50.754;3.366;2023-01-26T10:01:37;53.50;;;10.65;;
20480;SDS011;10399;50.754;3.366;2023-01-26T10:06:46;59.72;;;9.23;;
20480;SDS011;10399;50.754;3.366;2023-01-26T10:09:14;40.85;;;6.97;;
20480;SDS011;10399;50.754;3.366;2023-01-26T10:11:48;49.50;;;7.13;;
20480;SDS011;10399;50.754;3.366;2023-01-26T10:16:55;50.00;;;6.82;;
20480;SDS011;10399;50.754;3.366;2023-01-26T10:19:32;37.00;;;5.80;;
20480;SDS011;10399;50.754;3.366;2023-01-26T10:22:05;40.33;;;5.95;;
20480;SDS011;10399;50.754;3.366;2023-01-26T10:25:08;35.67;;;5.57;;
20480;SDS011;10399;50.754;3.366;2023-01-26T10:27:43;37.92;;;5.75;;
20480;SDS011;10399;50.754;3.366;2023-01-26T10:30:15;24.73;;;4.90;;
20480;SDS011;10399;50.754;3.366;2023-01-26T10:32:44;37.38;;;4.85;;
20480;SDS011;10399;50.754;3.366;2023-01-26T10:35:14;46.25;;;5.70;;
20480;SDS011;10399;50.754;3.366;2023-01-26T10:37:44;41.72;;;5.20;;
20480;SDS011;10399;50.754;3.366;2023-01-26T10:40:11;32.78;;;3.90;;
20480;SDS011;10399;50.754;3.366;2023-01-26T10:42:38;36.80;;;4.75;;
20480;SDS011;10399;50.754;3.366;2023-01-26T10:45:22;34.83;;;4.70;;
20480;SDS011;10399;50.754;3.366;2023-01-26T10:48:12;29.38;;;3.88;;
20480;SDS011;10399;50.754;3.366;2023-01-26T10:50:45;26.38;;;3.85;;
20480;SDS011;10399;50.754;3.366;2023-01-26T10:53:15;34.05;;;4.30;;
20480;SDS011;10399;50.754;3.366;2023-01-26T10:56:02;37.65;;;4.68;;
20480;SDS011;10399;50.754;3.366;2023-01-26T11:01:16;38.92;;;3.92;;
20480;SDS011;10399;50.754;3.366;2023-01-26T11:04:00;31.98;;;4.07;;
20480;SDS011;10399;50.754;3.366;2023-01-26T11:06:30;21.70;;;3.33;;
20480;SDS011;10399;50.754;3.366;2023-01-26T11:11:40;37.85;;;4.65;;
20480;SDS011;10399;50.754;3.366;2023-01-26T11:16:39;29.38;;;3.40;;
20480;SDS011;10399;50.754;3.366;2023-01-26T11:19:31;34.92;;;4.25;;
20480;SDS011;10399;50.754;3.366;2023-01-26T11:22:05;34.50;;;4.53;;
20480;SDS011;10399;50.754;3.366;2023-01-26T11:38:46;25.83;;;5.30;;
20480;SDS011;10399;50.754;3.366;2023-01-26T11:41:47;30.17;;;3.92;;
20480;SDS011;10399;50.754;3.366;2023-01-26T11:58:13;25.88;;;4.10;;
20480;SDS011;10399;50.754;3.366;2023-01-26T12:00:43;31.15;;;4.82;;
20480;SDS011;10399;50.754;3.366;2023-01-26T12:06:01;35.17;;;4.30;;
20480;SDS011;10399;50.754;3.366;2023-01-26T12:08:40;31.08;;;4.20;;
20480;SDS011;10399;50.754;3.366;2023-01-26T12:11:32;32.63;;;3.92;;
20480;SDS011;10399;50.754;3.366;2023-01-26T12:14:02;24.60;;;4.43;;
20480;SDS011;10399;50.754;3.366;2023-01-26T12:17:14;38.08;;;4.43;;
20480;SDS011;10399;50.754;3.366;2023-01-26T12:25:50;26.50;;;3.80;;
20480;SDS011;10399;50.754;3.366;2023-01-26T12:28:29;23.48;;;4.03;;
20480;SDS011;10399;50.754;3.366;2023-01-26T12:33:39;19.35;;;3.92;;
20480;SDS011;10399;50.754;3.366;2023-01-26T12:44:37;28.55;;;3.25;;
20480;SDS011;10399;50.754;3.366;2023-01-26T12:52:36;16.38;;;3.60;;
20480;SDS011;10399;50.754;3.366;2023-01-26T12:58:02;19.20;;;3.05;;
20480;SDS011;10399;50.754;3.366;2023-01-26T13:00:34;14.80;;;2.78;;
20480;SDS011;10399;50.754;3.366;2023-01-26T13:03:12;15.73;;;3.00;;
20480;SDS011;10399;50.754;3.366;2023-01-26T13:10:58;14.98;;;3.35;;
20480;SDS011;10399;50.754;3.366;2023-01-26T13:13:28;14.95;;;2.85;;
20480;SDS011;10399;50.754;3.366;2023-01-26T13:18:51;23.10;;;3.78;;
20480;SDS011;10399;50.754;3.366;2023-01-26T13:21:26;20.15;;;3.22;;
20480;SDS011;10399;50.754;3.366;2023-01-26T13:26:46;18.40;;;3.67;;
20480;SDS011;10399;50.754;3.366;2023-01-26T13:31:51;26.02;;;3.55;;
20480;SDS011;10399;50.754;3.366;2023-01-26T13:34:23;13.65;;;3.45;;
20480;SDS011;10399;50.754;3.366;2023-01-26T13:37:18;18.40;;;3.38;;
20480;SDS011;10399;50.754;3.366;2023-01-26T13:39:54;22.42;;;3.97;;
20480;SDS011;10399;50.754;3.366;2023-01-26T13:42:27;22.25;;;3.40;;
20480;SDS011;10399;50.754;3.366;2023-01-26T13:45:07;25.08;;;4.03;;
20480;SDS011;10399;50.754;3.366;2023-01-26T13:47:44;20.42;;;3.60;;
20480;SDS011;10399;50.754;3.366;2023-01-26T13:55:59;21.77;;;3.33;;
20480;SDS011;10399;50.754;3.366;2023-01-26T13:58:27;21.42;;;3.03;;
20480;SDS011;10399;50.754;3.366;2023-01-26T14:01:04;17.27;;;3.67;;
20480;SDS011;10399;50.754;3.366;2023-01-26T14:03:37;22.50;;;3.50;;
20480;SDS011;10399;50.754;3.366;2023-01-26T14:06:05;15.80;;;2.60;;
20480;SDS011;10399;50.754;3.366;2023-01-26T14:08:35;19.05;;;3.67;;
20480;SDS011;10399;50.754;3.366;2023-01-26T14:11:04;26.85;;;4.30;;
20480;SDS011;10399;50.754;3.366;2023-01-26T14:13:41;20.70;;;3.97;;
20480;SDS011;10399;50.754;3.366;2023-01-26T14:16:18;18.05;;;3.15;;
20480;SDS011;10399;50.754;3.366;2023-01-26T14:18:51;31.60;;;3.40;;
20480;SDS011;10399;50.754;3.366;2023-01-26T14:24:16;20.25;;;3.70;;
20480;SDS011;10399;50.754;3.366;2023-01-26T14:26:46;21.92;;;3.30;;
20480;SDS011;10399;50.754;3.366;2023-01-26T14:29:17;17.80;;;3.33;;
20480;SDS011;10399;50.754;3.366;2023-01-26T14:31:50;18.25;;;3.25;;
20480;SDS011;10399;50.754;3.366;2023-01-26T14:34:21;18.83;;;3.00;;
20480;SDS011;10399;50.754;3.366;2023-01-26T14:40:08;14.52;;;2.65;;
20480;SDS011;10399;50.754;3.366;2023-01-26T14:42:43;19.90;;;2.88;;
20480;SDS011;10399;50.754;3.366;2023-01-26T14:45:11;17.77;;;3.70;;
20480;SDS011;10399;50.754;3.366;2023-01-26T14:47:39;15.80;;;2.90;;
20480;SDS011;10399;50.754;3.366;2023-01-26T14:50:15;29.40;;;3.60;;
20480;SDS011;10399;50.754;3.366;2023-01-26T14:52:43;19.27;;;2.65;;
20480;SDS011;10399;50.754;3.366;2023-01-26T14:55:28;17.42;;;2.88;;
20480;SDS011;10399;50.754;3.366;2023-01-26T14:58:02;22.85;;;3.97;;
20480;SDS011;10399;50.754;3.366;2023-01-26T15:00:38;12.77;;;2.63;;
20480;SDS011;10399;50.754;3.366;2023-01-26T15:03:27;16.27;;;2.67;;
20480;SDS011;10399;50.754;3.366;2023-01-26T15:08:39;15.07;;;2.67;;
20480;SDS011;10399;50.754;3.366;2023-01-26T15:11:07;20.77;;;2.78;;
20480;SDS011;10399;50.754;3.366;2023-01-26T15:13:54;22.45;;;2.80;;
20480;SDS011;10399;50.754;3.366;2023-01-26T15:16:22;10.88;;;2.55;;
20480;SDS011;10399;50.754;3.366;2023-01-26T15:19:04;18.67;;;3.63;;
20480;SDS011;10399;50.754;3.366;2023-01-26T15:21:34;22.63;;;2.58;;
20480;SDS011;10399;50.754;3.366;2023-01-26T15:24:05;11.65;;;3.05;;
20480;SDS011;10399;50.754;3.366;2023-01-26T15:26:38;18.77;;;2.45;;
20480;SDS011;10399;50.754;3.366;2023-01-26T15:29:22;16.48;;;2.70;;
20480;SDS011;10399;50.754;3.366;2023-01-26T15:31:57;15.00;;;2.25;;
20480;SDS011;10399;50.754;3.366;2023-01-26T15:40:05;9.02;;;2.63;;
20480;SDS011;10399;50.754;3.366;2023-01-26T15:42:33;8.68;;;2.05;;
20480;SDS011;10399;50.754;3.366;2023-01-26T15:45:00;25.40;;;3.08;;
20480;SDS011;10399;50.754;3.366;2023-01-26T15:47:26;14.30;;;2.10;;
20480;SDS011;10399;50.754;3.366;2023-01-26T15:49:53;13.15;;;2.33;;
20480;SDS011;10399;50.754;3.366;2023-01-26T15:52:23;10.15;;;1.98;;
20480;SDS011;10399;50.754;3.366;2023-01-26T15:54:55;11.32;;;2.80;;
20480;SDS011;10399;50.754;3.366;2023-01-26T15:57:22;15.23;;;2.22;;
20480;SDS011;10399;50.754;3.366;2023-01-26T15:59:49;17.42;;;2.85;;
20480;SDS011;10399;50.754;3.366;2023-01-26T16:02:16;10.93;;;2.22;;
20480;SDS011;10399;50.754;3.366;2023-01-26T16:04:45;9.10;;;2.15;;
20480;SDS011;10399;50.754;3.366;2023-01-26T16:07:15;16.87;;;3.33;;
20480;SDS011;10399;50.754;3.366;2023-01-26T16:09:43;14.70;;;2.60;;
20480;SDS011;10399;50.754;3.366;2023-01-26T16:12:17;11.20;;;2.03;;
20480;SDS011;10399;50.754;3.366;2023-01-26T16:14:57;14.00;;;2.80;;
20480;SDS011;10399;50.754;3.366;2023-01-26T16:17:24;16.95;;;2.08;;
20480;SDS011;10399;50.754;3.366;2023-01-26T16:19:52;15.23;;;2.30;;
20480;SDS011;10399;50.754;3.366;2023-01-26T16:22:19;18.90;;;3.28;;
20480;SDS011;10399;50.754;3.366;2023-01-26T16:24:46;19.15;;;2.97;;
20480;SDS011;10399;50.754;3.366;2023-01-26T16:27:18;8.45;;;2.80;;
20480;SDS011;10399;50.754;3.366;2023-01-26T16:29:46;16.80;;;2.92;;
20480;SDS011;10399;50.754;3.366;2023-01-26T16:35:08;15.38;;;2.30;;
20480;SDS011;10399;50.754;3.366;2023-01-26T16:37:46;17.38;;;2.53;;
20480;SDS011;10399;50.754;3.366;2023-01-26T16:40:14;11.90;;;2.55;;
20480;SDS011;10399;50.754;3.366;2023-01-26T16:42:44;9.20;;;2.40;;
20480;SDS011;10399;50.754;3.366;2023-01-26T16:45:14;10.98;;;2.38;;